sensor_id;sensor_type;location;lat;lon;timestamp;pressure;altitude;pressure_sealevel;temperature;humidity
60019;BME280;45870;42.528;26.740;2022-12-18T00:01:43;100255.09;;;18.69;47.63
60019;BME280;45870;42.528;26.740;2022-12-18T00:04:20;100323.75;;;19.43;46.22
60019;BME280;45870;42.528;26.740;2022-12-18T00:06:46;100295.25;;;19.29;45.58
60019;BME280;45870;42.528;26.740;2022-12-18T00:09:12;100318.28;;;18.78;46.72
60019;BME280;45870;42.528;26.740;2022-12-18T00:11:38;100335.78;;;19.22;45.64
60019;BME280;45870;42.528;26.740;2022-12-18T00:14:04;100310.34;;;19.12;45.35
60019;BME280;45870;42.528;26.740;2022-12-18T00:16:30;100338.78;;;18.70;46.77
60019;BME280;45870;42.528;26.740;2022-12-18T00:18:59;100345.34;;;18.54;46.96
60019;BME280;45870;42.528;26.740;2022-12-18T00:21:26;100347.84;;;17.98;48.78
60019;BME280;45870;42.528;26.740;2022-12-18T00:23:52;100351.09;;;18.58;47.13
60019;BME280;45870;42.528;26.740;2022-12-18T00:26:23;100296.75;;;17.89;47.95
60019;BME280;45870;42.528;26.740;2022-12-18T00:28:50;100310.09;;;18.78;45.64
60019;BME280;45870;42.528;26.740;2022-12-18T00:31:18;100316.31;;;18.43;46.17
60019;BME280;45870;42.528;26.740;2022-12-18T00:33:45;100354.56;;;18.33;46.38
60019;BME280;45870;42.528;26.740;2022-12-18T00:36:14;100359.06;;;18.94;45.99
60019;BME280;45870;42.528;26.740;2022-12-18T00:38:41;100308.31;;;18.26;46.09
60019;BME280;45870;42.528;26.740;2022-12-18T00:41:08;100322.13;;;18.97;44.87
60019;BME280;45870;42.528;26.740;2022-12-18T00:43:34;100349.75;;;19.06;44.30
60019;BME280;45870;42.528;26.740;2022-12-18T00:46:00;100365.84;;;18.72;45.89
60019;BME280;45870;42.528;26.740;2022-12-18T00:48:26;100370.56;;;19.47;43.80
60019;BME280;45870;42.528;26.740;2022-12-18T00:50:52;100349.22;;;19.44;44.04
60019;BME280;45870;42.528;26.740;2022-12-18T00:53:18;100360.69;;;19.11;44.98
60019;BME280;45870;42.528;26.740;2022-12-18T00:55:45;100358.22;;;19.50;44.30
60019;BME280;45870;42.528;26.740;2022-12-18T00:58:12;100372.69;;;19.70;43.75
60019;BME280;45870;42.528;26.740;2022-12-18T01:00:38;100339.94;;;20.19;42.34
60019;BME280;45870;42.528;26.740;2022-12-18T01:03:05;100377.06;;;19.71;44.17
60019;BME280;45870;42.528;26.740;2022-12-18T01:05:32;100382.59;;;19.51;45.29
60019;BME280;45870;42.528;26.740;2022-12-18T01:07:58;100380.13;;;18.89;46.82
60019;BME280;45870;42.528;26.740;2022-12-18T01:10:24;100386.84;;;18.46;47.36
60019;BME280;45870;42.528;26.740;2022-12-18T01:12:50;100383.69;;;19.05;45.92
60019;BME280;45870;42.528;26.740;2022-12-18T01:15:16;100395.84;;;20.28;43.11
60019;BME280;45870;42.528;26.740;2022-12-18T01:17:42;100406.47;;;20.40;42.37
60019;BME280;45870;42.528;26.740;2022-12-18T01:20:10;100386.78;;;20.28;43.13
60019;BME280;45870;42.528;26.740;2022-12-18T01:22:35;100374.38;;;18.90;45.09
60019;BME280;45870;42.528;26.740;2022-12-18T01:25:02;100425.00;;;19.23;45.45
60019;BME280;45870;42.528;26.740;2022-12-18T01:27:33;100405.81;;;18.83;45.53
60019;BME280;45870;42.528;26.740;2022-12-18T01:29:59;100431.34;;;19.59;44.19
60019;BME280;45870;42.528;26.740;2022-12-18T01:32:25;100404.75;;;19.14;45.00
60019;BME280;45870;42.528;26.740;2022-12-18T01:34:50;100445.56;;;19.76;44.92
60019;BME280;45870;42.528;26.740;2022-12-18T01:37:16;100435.94;;;19.89;44.99
60019;BME280;45870;42.528;26.740;2022-12-18T01:39:42;100423.31;;;19.98;44.62
60019;BME280;45870;42.528;26.740;2022-12-18T01:42:13;100355.19;;;18.75;46.99
60019;BME280;45870;42.528;26.740;2022-12-18T01:52:43;100408.19;;;17.92;51.77
60019;BME280;45870;42.528;26.740;2022-12-18T01:55:11;100360.97;;;17.55;52.28
60019;BME280;45870;42.528;26.740;2022-12-18T01:57:39;100387.81;;;18.15;51.55
60019;BME280;45870;42.528;26.740;2022-12-18T02:00:09;100361.97;;;17.07;54.25
60019;BME280;45870;42.528;26.740;2022-12-18T02:02:36;100242.97;;;16.59;54.23
60019;BME280;45870;42.528;26.740;2022-12-18T02:05:03;100361.63;;;17.35;54.46
60019;BME280;45870;42.528;26.740;2022-12-18T02:10:43;100352.41;;;17.04;55.83
60019;BME280;45870;42.528;26.740;2022-12-18T02:18:28;100363.41;;;18.70;51.02
60019;BME280;45870;42.528;26.740;2022-12-18T02:21:27;100386.41;;;19.25;50.55
60019;BME280;45870;42.528;26.740;2022-12-18T02:26:55;100353.69;;;19.99;48.47
60019;BME280;45870;42.528;26.740;2022-12-18T02:29:26;100381.88;;;20.15;48.61
60019;BME280;45870;42.528;26.740;2022-12-18T02:31:57;100382.47;;;20.66;47.22
60019;BME280;45870;42.528;26.740;2022-12-18T02:34:28;100256.06;;;20.18;45.89
60019;BME280;45870;42.528;26.740;2022-12-18T02:36:56;100361.28;;;20.76;46.03
60019;BME280;45870;42.528;26.740;2022-12-18T02:39:25;100379.78;;;21.00;45.97
60019;BME280;45870;42.528;26.740;2022-12-18T02:41:52;100361.88;;;20.09;47.74
60019;BME280;45870;42.528;26.740;2022-12-18T02:44:17;100390.53;;;19.12;50.33
60019;BME280;45870;42.528;26.740;2022-12-18T02:46:48;100394.38;;;19.31;50.05
60019;BME280;45870;42.528;26.740;2022-12-18T02:49:38;100389.81;;;20.16;47.56
60019;BME280;45870;42.528;26.740;2022-12-18T02:57:55;100407.97;;;18.66;49.68
60019;BME280;45870;42.528;26.740;2022-12-18T03:00:26;100405.53;;;18.07;50.24
60019;BME280;45870;42.528;26.740;2022-12-18T03:03:05;100307.59;;;17.32;50.32
60019;BME280;45870;42.528;26.740;2022-12-18T03:05:53;100406.06;;;17.25;51.27
60019;BME280;45870;42.528;26.740;2022-12-18T03:08:33;100409.34;;;16.69;52.86
60019;BME280;45870;42.528;26.740;2022-12-18T03:11:07;100413.16;;;16.94;51.60
60019;BME280;45870;42.528;26.740;2022-12-18T03:13:46;100411.44;;;17.15;51.05
60019;BME280;45870;42.528;26.740;2022-12-18T03:16:26;100357.13;;;17.14;49.35
60019;BME280;45870;42.528;26.740;2022-12-18T03:19:00;100417.34;;;17.71;48.54
60019;BME280;45870;42.528;26.740;2022-12-18T03:21:35;100357.38;;;16.80;49.27
60019;BME280;45870;42.528;26.740;2022-12-18T03:24:05;100419.75;;;17.62;48.37
60019;BME280;45870;42.528;26.740;2022-12-18T03:26:35;100330.44;;;16.57;49.82
60019;BME280;45870;42.528;26.740;2022-12-18T03:29:07;100422.78;;;17.66;47.94
60019;BME280;45870;42.528;26.740;2022-12-18T03:31:37;100419.22;;;17.33;48.72
60019;BME280;45870;42.528;26.740;2022-12-18T03:34:12;100366.69;;;16.58;49.33
60019;BME280;45870;42.528;26.740;2022-12-18T03:36:38;100423.97;;;16.84;49.69
60019;BME280;45870;42.528;26.740;2022-12-18T03:39:04;100382.34;;;16.45;48.80
60019;BME280;45870;42.528;26.740;2022-12-18T03:41:58;100415.47;;;16.81;49.91
60019;BME280;45870;42.528;26.740;2022-12-18T03:44:39;100382.84;;;17.60;47.33
60019;BME280;45870;42.528;26.740;2022-12-18T03:47:16;100429.63;;;18.20;46.23
60019;BME280;45870;42.528;26.740;2022-12-18T03:53:04;100425.06;;;16.62;50.08
60019;BME280;45870;42.528;26.740;2022-12-18T03:55:35;100393.91;;;17.06;48.07
60019;BME280;45870;42.528;26.740;2022-12-18T03:58:03;100445.59;;;16.96;48.80
60019;BME280;45870;42.528;26.740;2022-12-18T04:00:31;100415.81;;;16.89;48.87
60019;BME280;45870;42.528;26.740;2022-12-18T04:02:59;100460.31;;;16.46;50.47
60019;BME280;45870;42.528;26.740;2022-12-18T04:05:27;100466.16;;;15.78;53.29
60019;BME280;45870;42.528;26.740;2022-12-18T04:07:54;100444.66;;;16.59;51.02
60019;BME280;45870;42.528;26.740;2022-12-18T04:10:21;100445.44;;;17.08;49.61
60019;BME280;45870;42.528;26.740;2022-12-18T04:12:47;100478.22;;;16.86;50.51
60019;BME280;45870;42.528;26.740;2022-12-18T04:15:14;100490.84;;;16.92;49.74
60019;BME280;45870;42.528;26.740;2022-12-18T04:17:47;100456.25;;;15.89;52.93
60019;BME280;45870;42.528;26.740;2022-12-18T04:20:14;100455.94;;;16.67;50.43
60019;BME280;45870;42.528;26.740;2022-12-18T04:22:39;100482.25;;;16.40;51.09
60019;BME280;45870;42.528;26.740;2022-12-18T04:25:05;100486.41;;;16.42;50.77
60019;BME280;45870;42.528;26.740;2022-12-18T04:27:31;100490.59;;;16.72;49.95
60019;BME280;45870;42.528;26.740;2022-12-18T04:29:57;100499.41;;;16.35;49.85
60019;BME280;45870;42.528;26.740;2022-12-18T04:32:23;100437.59;;;16.19;49.07
60019;BME280;45870;42.528;26.740;2022-12-18T04:34:48;100500.41;;;16.94;48.68
60019;BME280;45870;42.528;26.740;2022-12-18T04:37:14;100501.88;;;16.80;48.87
60019;BME280;45870;42.528;26.740;2022-12-18T04:39:40;100506.81;;;16.83;48.31
60019;BME280;45870;42.528;26.740;2022-12-18T04:42:06;100451.34;;;16.29;48.70
60019;BME280;45870;42.528;26.740;2022-12-18T04:44:31;100507.69;;;17.42;46.67
60019;BME280;45870;42.528;26.740;2022-12-18T04:46:57;100512.06;;;17.12;47.27
60019;BME280;45870;42.528;26.740;2022-12-18T04:49:23;100507.09;;;16.60;48.52
60019;BME280;45870;42.528;26.740;2022-12-18T04:51:49;100436.19;;;15.95;48.97
60019;BME280;45870;42.528;26.740;2022-12-18T04:54:14;100523.22;;;17.37;48.24
60019;BME280;45870;42.528;26.740;2022-12-18T04:56:40;100524.75;;;17.01;48.43
60019;BME280;45870;42.528;26.740;2022-12-18T04:59:06;100495.59;;;16.80;48.26
60019;BME280;45870;42.528;26.740;2022-12-18T05:01:31;100531.06;;;16.80;48.05
60019;BME280;45870;42.528;26.740;2022-12-18T05:03:57;100541.00;;;16.69;48.79
60019;BME280;45870;42.528;26.740;2022-12-18T05:06:23;100456.94;;;16.18;49.11
60019;BME280;45870;42.528;26.740;2022-12-18T05:08:49;100356.00;;;15.64;48.84
60019;BME280;45870;42.528;26.740;2022-12-18T05:11:15;100552.09;;;16.84;48.42
60019;BME280;45870;42.528;26.740;2022-12-18T05:13:42;100514.63;;;16.53;48.74
60019;BME280;45870;42.528;26.740;2022-12-18T05:16:08;100551.31;;;16.89;48.08
60019;BME280;45870;42.528;26.740;2022-12-18T05:18:35;100541.09;;;16.74;47.96
60019;BME280;45870;42.528;26.740;2022-12-18T05:21:01;100542.63;;;16.48;48.10
60019;BME280;45870;42.528;26.740;2022-12-18T05:23:27;100470.41;;;16.08;48.69
60019;BME280;45870;42.528;26.740;2022-12-18T05:25:55;100566.38;;;16.70;48.33
60019;BME280;45870;42.528;26.740;2022-12-18T05:28:23;100575.00;;;16.83;48.38
60019;BME280;45870;42.528;26.740;2022-12-18T05:30:50;100582.44;;;16.49;48.70
60019;BME280;45870;42.528;26.740;2022-12-18T05:33:18;100587.25;;;16.81;48.89
60019;BME280;45870;42.528;26.740;2022-12-18T05:35:49;100574.53;;;16.31;49.08
60019;BME280;45870;42.528;26.740;2022-12-18T05:38:15;100591.97;;;16.69;48.38
60019;BME280;45870;42.528;26.740;2022-12-18T05:40:42;100529.50;;;16.89;47.13
60019;BME280;45870;42.528;26.740;2022-12-18T05:43:09;100541.44;;;16.83;47.74
60019;BME280;45870;42.528;26.740;2022-12-18T05:45:39;100552.31;;;16.78;47.44
60019;BME280;45870;42.528;26.740;2022-12-18T05:48:05;100602.97;;;16.40;48.78
60019;BME280;45870;42.528;26.740;2022-12-18T05:50:35;100572.50;;;15.72;50.23
60019;BME280;45870;42.528;26.740;2022-12-18T05:53:02;100609.94;;;16.31;49.45
60019;BME280;45870;42.528;26.740;2022-12-18T05:55:28;100622.31;;;15.89;50.37
60019;BME280;45870;42.528;26.740;2022-12-18T05:57:54;100589.00;;;15.82;50.40
60019;BME280;45870;42.528;26.740;2022-12-18T06:00:20;100632.75;;;16.25;49.97
60019;BME280;45870;42.528;26.740;2022-12-18T06:02:48;100640.59;;;16.22;49.21
60019;BME280;45870;42.528;26.740;2022-12-18T06:05:14;100643.38;;;16.10;49.64
60019;BME280;45870;42.528;26.740;2022-12-18T06:07:40;100653.81;;;15.85;50.08
60019;BME280;45870;42.528;26.740;2022-12-18T06:10:06;100617.19;;;15.76;49.91
60019;BME280;45870;42.528;26.740;2022-12-18T06:12:32;100607.88;;;15.72;49.60
60019;BME280;45870;42.528;26.740;2022-12-18T06:14:59;100663.84;;;16.13;49.03
60019;BME280;45870;42.528;26.740;2022-12-18T06:17:29;100654.91;;;15.56;50.79
60019;BME280;45870;42.528;26.740;2022-12-18T06:19:55;100616.69;;;16.62;47.68
60019;BME280;45870;42.528;26.740;2022-12-18T06:22:21;100678.38;;;16.52;50.08
60019;BME280;45870;42.528;26.740;2022-12-18T06:24:47;100701.88;;;17.29;48.92
60019;BME280;45870;42.528;26.740;2022-12-18T06:27:13;100705.44;;;17.30;48.33
60019;BME280;45870;42.528;26.740;2022-12-18T06:29:38;100711.47;;;16.27;51.50
60019;BME280;45870;42.528;26.740;2022-12-18T06:32:04;100691.72;;;15.58;52.69
60019;BME280;45870;42.528;26.740;2022-12-18T06:34:32;100723.47;;;15.18;54.05
60019;BME280;45870;42.528;26.740;2022-12-18T06:36:58;100732.25;;;15.71;53.36
60019;BME280;45870;42.528;26.740;2022-12-18T06:39:24;100738.94;;;15.40;53.02
60019;BME280;45870;42.528;26.740;2022-12-18T06:41:51;100742.72;;;15.39;53.41
60019;BME280;45870;42.528;26.740;2022-12-18T06:44:17;100749.34;;;15.32;54.18
60019;BME280;45870;42.528;26.740;2022-12-18T06:46:42;100698.22;;;14.59;55.15
60019;BME280;45870;42.528;26.740;2022-12-18T06:49:08;100757.44;;;15.04;53.75
60019;BME280;45870;42.528;26.740;2022-12-18T06:51:35;100753.91;;;16.23;50.84
60019;BME280;45870;42.528;26.740;2022-12-18T06:54:01;100689.44;;;15.04;52.70
60019;BME280;45870;42.528;26.740;2022-12-18T06:56:28;100781.16;;;15.94;52.38
60019;BME280;45870;42.528;26.740;2022-12-18T06:58:54;100696.94;;;14.73;53.55
60019;BME280;45870;42.528;26.740;2022-12-18T07:01:20;100776.69;;;15.25;53.23
60019;BME280;45870;42.528;26.740;2022-12-18T07:03:47;100784.75;;;15.09;53.77
60019;BME280;45870;42.528;26.740;2022-12-18T07:06:19;100666.81;;;13.98;54.25
60019;BME280;45870;42.528;26.740;2022-12-18T07:08:46;100788.63;;;14.66;54.10
60019;BME280;45870;42.528;26.740;2022-12-18T07:11:12;100796.81;;;15.13;53.46
60019;BME280;45870;42.528;26.740;2022-12-18T07:13:38;100760.38;;;14.79;52.44
60019;BME280;45870;42.528;26.740;2022-12-18T07:16:09;100751.59;;;14.54;52.97
60019;BME280;45870;42.528;26.740;2022-12-18T07:18:35;100802.69;;;14.86;53.65
60019;BME280;45870;42.528;26.740;2022-12-18T07:21:07;100576.84;;;13.60;52.35
60019;BME280;45870;42.528;26.740;2022-12-18T07:23:34;100744.53;;;15.74;50.07
60019;BME280;45870;42.528;26.740;2022-12-18T07:26:04;100815.31;;;15.62;51.37
60019;BME280;45870;42.528;26.740;2022-12-18T07:28:32;100817.69;;;15.24;52.42
60019;BME280;45870;42.528;26.740;2022-12-18T07:31:01;100821.38;;;15.06;52.38
60019;BME280;45870;42.528;26.740;2022-12-18T07:33:27;100823.84;;;15.31;52.09
60019;BME280;45870;42.528;26.740;2022-12-18T07:35:53;100834.16;;;15.06;52.62
60019;BME280;45870;42.528;26.740;2022-12-18T07:38:19;100828.13;;;15.50;52.02
60019;BME280;45870;42.528;26.740;2022-12-18T07:40:45;100840.56;;;15.58;51.78
60019;BME280;45870;42.528;26.740;2022-12-18T07:43:11;100844.44;;;15.38;52.08
60019;BME280;45870;42.528;26.740;2022-12-18T07:45:36;100789.22;;;15.03;52.25
60019;BME280;45870;42.528;26.740;2022-12-18T07:48:02;100831.44;;;15.17;52.27
60019;BME280;45870;42.528;26.740;2022-12-18T07:50:29;100836.63;;;14.95;52.79
60019;BME280;45870;42.528;26.740;2022-12-18T07:52:54;100851.84;;;14.85;53.00
60019;BME280;45870;42.528;26.740;2022-12-18T07:55:20;100861.31;;;14.94;53.44
60019;BME280;45870;42.528;26.740;2022-12-18T07:57:46;100824.31;;;14.93;52.35
60019;BME280;45870;42.528;26.740;2022-12-18T08:00:12;100854.38;;;14.98;52.48
60019;BME280;45870;42.528;26.740;2022-12-18T08:02:38;100836.16;;;14.87;52.95
60019;BME280;45870;42.528;26.740;2022-12-18T08:05:04;100833.09;;;14.95;52.28
60019;BME280;45870;42.528;26.740;2022-12-18T08:07:30;100852.81;;;15.14;52.80
60019;BME280;45870;42.528;26.740;2022-12-18T08:09:56;100868.59;;;15.23;51.29
60019;BME280;45870;42.528;26.740;2022-12-18T08:12:22;100886.19;;;15.21;51.58
60019;BME280;45870;42.528;26.740;2022-12-18T08:14:48;100864.72;;;14.78;51.89
60019;BME280;45870;42.528;26.740;2022-12-18T08:17:13;100875.88;;;14.58;52.60
60019;BME280;45870;42.528;26.740;2022-12-18T08:19:40;100845.69;;;14.66;52.80
60019;BME280;45870;42.528;26.740;2022-12-18T08:22:06;100882.47;;;14.50;52.21
60019;BME280;45870;42.528;26.740;2022-12-18T08:24:31;100883.41;;;14.44;52.09
60019;BME280;45870;42.528;26.740;2022-12-18T08:26:57;100888.78;;;15.16;51.41
60019;BME280;45870;42.528;26.740;2022-12-18T08:29:23;100894.53;;;14.84;51.54
60019;BME280;45870;42.528;26.740;2022-12-18T08:31:49;100890.44;;;14.64;51.71
60019;BME280;45870;42.528;26.740;2022-12-18T08:34:14;100852.50;;;14.57;50.89
60019;BME280;45870;42.528;26.740;2022-12-18T08:36:40;100868.56;;;15.35;49.13
60019;BME280;45870;42.528;26.740;2022-12-18T08:39:07;100902.97;;;15.18;49.83
60019;BME280;45870;42.528;26.740;2022-12-18T08:41:32;100907.56;;;14.64;50.99
60019;BME280;45870;42.528;26.740;2022-12-18T08:44:01;100907.66;;;14.58;50.81
60019;BME280;45870;42.528;26.740;2022-12-18T08:46:45;100904.66;;;13.99;50.91
60019;BME280;45870;42.528;26.740;2022-12-18T08:49:11;100914.78;;;14.22;50.78
60019;BME280;45870;42.528;26.740;2022-12-18T08:51:38;100910.69;;;14.79;50.67
60019;BME280;45870;42.528;26.740;2022-12-18T08:54:05;100849.97;;;13.96;51.13
60019;BME280;45870;42.528;26.740;2022-12-18T08:56:31;100903.50;;;14.85;49.91
60019;BME280;45870;42.528;26.740;2022-12-18T08:58:57;100899.66;;;14.63;50.34
60019;BME280;45870;42.528;26.740;2022-12-18T09:01:24;100855.66;;;14.42;50.59
60019;BME280;45870;42.528;26.740;2022-12-18T09:03:50;100896.59;;;14.71;50.28
60019;BME280;45870;42.528;26.740;2022-12-18T09:06:18;100914.28;;;15.03;50.73
60019;BME280;45870;42.528;26.740;2022-12-18T09:08:44;100916.38;;;14.89;50.01
60019;BME280;45870;42.528;26.740;2022-12-18T09:11:18;100805.75;;;14.67;49.11
60019;BME280;45870;42.528;26.740;2022-12-18T09:13:45;100901.91;;;14.66;49.47
60019;BME280;45870;42.528;26.740;2022-12-18T09:16:10;100917.00;;;15.03;48.48
60019;BME280;45870;42.528;26.740;2022-12-18T09:18:36;100917.25;;;15.13;48.90
60019;BME280;45870;42.528;26.740;2022-12-18T09:21:14;100911.38;;;14.63;48.82
60019;BME280;45870;42.528;26.740;2022-12-18T09:23:40;100902.81;;;14.89;48.63
60019;BME280;45870;42.528;26.740;2022-12-18T09:26:06;100909.66;;;14.92;48.84
60019;BME280;45870;42.528;26.740;2022-12-18T09:28:32;100853.03;;;14.18;48.71
60019;BME280;45870;42.528;26.740;2022-12-18T09:30:58;100909.56;;;15.10;47.95
60019;BME280;45870;42.528;26.740;2022-12-18T09:33:25;100908.59;;;14.93;49.22
60019;BME280;45870;42.528;26.740;2022-12-18T09:35:51;100922.38;;;15.21;49.07
60019;BME280;45870;42.528;26.740;2022-12-18T09:38:18;100919.94;;;14.90;49.56
60019;BME280;45870;42.528;26.740;2022-12-18T09:40:48;100918.94;;;14.43;50.31
60019;BME280;45870;42.528;26.740;2022-12-18T09:43:22;100919.34;;;14.28;50.44
60019;BME280;45870;42.528;26.740;2022-12-18T09:45:55;100930.50;;;14.20;50.67
60019;BME280;45870;42.528;26.740;2022-12-18T09:48:27;100894.75;;;14.41;49.00
60019;BME280;45870;42.528;26.740;2022-12-18T09:50:59;100915.34;;;13.94;50.65
60019;BME280;45870;42.528;26.740;2022-12-18T09:53:31;100868.00;;;13.90;50.55
60019;BME280;45870;42.528;26.740;2022-12-18T09:56:00;100897.78;;;13.61;49.87
60019;BME280;45870;42.528;26.740;2022-12-18T09:58:36;100927.31;;;14.05;50.11
60019;BME280;45870;42.528;26.740;2022-12-18T10:01:10;100881.94;;;13.58;50.11
60019;BME280;45870;42.528;26.740;2022-12-18T10:03:37;100919.47;;;14.15;50.03
60019;BME280;45870;42.528;26.740;2022-12-18T10:06:13;100930.66;;;14.07;50.60
60019;BME280;45870;42.528;26.740;2022-12-18T10:14:23;100910.88;;;14.18;49.93
60019;BME280;45870;42.528;26.740;2022-12-18T10:19:45;100901.47;;;13.84;49.68
60019;BME280;45870;42.528;26.740;2022-12-18T10:27:44;100931.94;;;12.87;52.67
60019;BME280;45870;42.528;26.740;2022-12-18T10:30:20;100933.13;;;13.29;52.31
60019;BME280;45870;42.528;26.740;2022-12-18T10:32:46;100918.50;;;12.99;52.97
60019;BME280;45870;42.528;26.740;2022-12-18T10:35:22;100867.84;;;12.43;53.66
60019;BME280;45870;42.528;26.740;2022-12-18T10:40:56;100939.63;;;13.46;53.75
60019;BME280;45870;42.528;26.740;2022-12-18T10:43:23;100937.81;;;13.40;54.78
60019;BME280;45870;42.528;26.740;2022-12-18T10:48:35;100943.19;;;12.91;56.15
60019;BME280;45870;42.528;26.740;2022-12-18T10:51:02;100952.41;;;12.39;56.22
60019;BME280;45870;42.528;26.740;2022-12-18T10:53:30;100940.66;;;12.07;57.42
60019;BME280;45870;42.528;26.740;2022-12-18T10:55:58;100955.44;;;12.11;56.66
60019;BME280;45870;42.528;26.740;2022-12-18T10:58:29;100961.38;;;11.82;57.18
60019;BME280;45870;42.528;26.740;2022-12-18T11:03:32;100960.69;;;11.93;57.37
60019;BME280;45870;42.528;26.740;2022-12-18T11:06:12;100945.78;;;11.71;57.91
60019;BME280;45870;42.528;26.740;2022-12-18T11:08:39;100960.34;;;11.50;57.68
60019;BME280;45870;42.528;26.740;2022-12-18T11:11:22;100893.81;;;10.83;57.26
60019;BME280;45870;42.528;26.740;2022-12-18T11:13:54;100956.59;;;11.31;58.21
60019;BME280;45870;42.528;26.740;2022-12-18T11:16:22;100961.16;;;11.05;57.77
60019;BME280;45870;42.528;26.740;2022-12-18T11:18:49;100924.38;;;10.90;58.02
60019;BME280;45870;42.528;26.740;2022-12-18T11:21:15;100969.50;;;11.29;58.32
60019;BME280;45870;42.528;26.740;2022-12-18T11:23:52;100911.03;;;11.41;56.51
60019;BME280;45870;42.528;26.740;2022-12-18T11:26:19;100984.03;;;11.35;57.64
60019;BME280;45870;42.528;26.740;2022-12-18T11:28:50;100987.56;;;11.42;56.92
60019;BME280;45870;42.528;26.740;2022-12-18T11:31:27;100952.00;;;11.06;58.18
60019;BME280;45870;42.528;26.740;2022-12-18T11:36:30;100987.75;;;11.47;56.59
60019;BME280;45870;42.528;26.740;2022-12-18T11:38:59;100898.34;;;10.57;56.56
60019;BME280;45870;42.528;26.740;2022-12-18T11:41:41;100890.88;;;10.59;56.39
60019;BME280;45870;42.528;26.740;2022-12-18T11:44:38;100986.53;;;11.23;57.06
60019;BME280;45870;42.528;26.740;2022-12-18T11:49:41;100931.16;;;10.67;57.12
60019;BME280;45870;42.528;26.740;2022-12-18T11:52:21;100918.66;;;10.52;57.09
60019;BME280;45870;42.528;26.740;2022-12-18T11:54:55;100913.28;;;10.59;56.23
60019;BME280;45870;42.528;26.740;2022-12-18T11:57:45;101006.28;;;11.43;55.93
60019;BME280;45870;42.528;26.740;2022-12-18T12:00:18;101007.31;;;11.16;56.16
60019;BME280;45870;42.528;26.740;2022-12-18T12:11:43;100982.56;;;10.99;55.77
60019;BME280;45870;42.528;26.740;2022-12-18T12:14:19;101011.91;;;11.22;54.78
60019;BME280;45870;42.528;26.740;2022-12-18T12:22:16;101029.09;;;11.01;54.52
60019;BME280;45870;42.528;26.740;2022-12-18T12:27:49;101034.56;;;11.21;54.51
60019;BME280;45870;42.528;26.740;2022-12-18T12:33:36;101046.19;;;11.22;53.89
60019;BME280;45870;42.528;26.740;2022-12-18T12:38:55;101060.38;;;10.70;54.30
60019;BME280;45870;42.528;26.740;2022-12-18T12:41:26;101050.13;;;11.13;53.15
60019;BME280;45870;42.528;26.740;2022-12-18T12:44:26;101044.94;;;11.11;52.78
60019;BME280;45870;42.528;26.740;2022-12-18T12:46:59;101047.22;;;11.14;53.90
60019;BME280;45870;42.528;26.740;2022-12-18T12:49:28;101011.38;;;10.73;54.35
60019;BME280;45870;42.528;26.740;2022-12-18T12:52:10;101071.09;;;11.04;53.82
60019;BME280;45870;42.528;26.740;2022-12-18T12:54:39;101060.16;;;11.32;54.14
60019;BME280;45870;42.528;26.740;2022-12-18T13:02:38;101077.03;;;10.80;54.89
60019;BME280;45870;42.528;26.740;2022-12-18T13:07:51;101083.81;;;10.28;57.04
60019;BME280;45870;42.528;26.740;2022-12-18T13:20:39;101100.09;;;10.14;56.48
60019;BME280;45870;42.528;26.740;2022-12-18T13:36:40;101132.22;;;10.64;57.49
60019;BME280;45870;42.528;26.740;2022-12-18T13:41:40;101137.34;;;10.87;55.74
60019;BME280;45870;42.528;26.740;2022-12-18T13:46:51;101126.81;;;10.64;56.31
60019;BME280;45870;42.528;26.740;2022-12-18T13:49:30;101139.44;;;10.23;57.67
60019;BME280;45870;42.528;26.740;2022-12-18T13:52:01;101139.06;;;10.04;57.77
60019;BME280;45870;42.528;26.740;2022-12-18T13:54:35;101136.97;;;10.07;58.16
60019;BME280;45870;42.528;26.740;2022-12-18T13:57:03;101075.81;;;9.86;58.75
60019;BME280;45870;42.528;26.740;2022-12-18T13:59:38;101141.47;;;10.21;59.11
60019;BME280;45870;42.528;26.740;2022-12-18T14:02:15;101158.06;;;10.18;59.06
60019;BME280;45870;42.528;26.740;2022-12-18T14:04:45;101160.75;;;10.45;59.13
60019;BME280;45870;42.528;26.740;2022-12-18T14:07:14;101147.28;;;10.80;56.96
60019;BME280;45870;42.528;26.740;2022-12-18T14:09:43;101186.50;;;10.76;58.18
60019;BME280;45870;42.528;26.740;2022-12-18T14:12:24;101099.97;;;9.94;58.65
60019;BME280;45870;42.528;26.740;2022-12-18T14:15:41;101201.53;;;10.91;57.46
60019;BME280;45870;42.528;26.740;2022-12-18T14:20:58;101189.59;;;10.17;59.13
60019;BME280;45870;42.528;26.740;2022-12-18T14:23:36;101108.34;;;10.06;58.60
60019;BME280;45870;42.528;26.740;2022-12-18T14:26:19;101202.47;;;10.71;58.96
60019;BME280;45870;42.528;26.740;2022-12-18T14:28:46;101197.34;;;10.48;58.71
60019;BME280;45870;42.528;26.740;2022-12-18T14:31:20;101128.75;;;9.66;59.29
60019;BME280;45870;42.528;26.740;2022-12-18T14:33:46;101200.66;;;10.01;58.98
60019;BME280;45870;42.528;26.740;2022-12-18T14:36:17;101197.34;;;10.20;58.60
60019;BME280;45870;42.528;26.740;2022-12-18T14:38:48;101194.81;;;10.19;58.55
60019;BME280;45870;42.528;26.740;2022-12-18T14:41:16;101175.09;;;10.18;58.89
60019;BME280;45870;42.528;26.740;2022-12-18T14:43:44;101207.75;;;10.51;58.07
60019;BME280;45870;42.528;26.740;2022-12-18T14:52:00;101188.19;;;10.00;59.41
60019;BME280;45870;42.528;26.740;2022-12-18T14:54:28;101206.63;;;10.45;58.88
60019;BME280;45870;42.528;26.740;2022-12-18T14:57:02;101172.16;;;10.41;58.30